Detroit, Alabama
Current Conditions -  °F | °C
As of 2:35 AM on Monday 26 Jan 2015 (Local Time) from KM40 Reporting Station
Overcast Overcast  
Wind Chill:   Ceiling: 1800
Heat Index:   Visibility: 10mi
Dew Point:   Wind: 13mph
Humidity: 57%   Direction: 310°NW
Pressure: 29.94"   Gusts: 17mph
Location:  34.03°N, 88.17°W
Report Text: KM40 260835Z AUTO 31011G15KT 10SM OVC018 08/00 A2994 RMK AO2
Loading
Personal Weather Stations






























Interactive Weather Map New forecast layout! Learn more

10-Day Weather Forecast

Advertisements
Track Severe Weather on mobile